sensor_id;sensor_type;location;lat;lon;timestamp;P1;durP1;ratioP1;P2;durP2;ratioP2
74793;SDS011;63320;50.768;6.724;2023-04-24T00:01:43;3.30;;;1.30;;
74793;SDS011;63320;50.768;6.724;2023-04-24T00:04:09;3.03;;;1.20;;
74793;SDS011;63320;50.768;6.724;2023-04-24T00:06:34;3.70;;;1.45;;
74793;SDS011;63320;50.768;6.724;2023-04-24T00:09:00;4.43;;;1.40;;
74793;SDS011;63320;50.768;6.724;2023-04-24T00:11:25;2.38;;;0.95;;
74793;SDS011;63320;50.768;6.724;2023-04-24T00:13:51;2.13;;;0.88;;
74793;SDS011;63320;50.768;6.724;2023-04-24T00:16:17;2.28;;;0.90;;
74793;SDS011;63320;50.768;6.724;2023-04-24T00:18:43;1.95;;;0.90;;
74793;SDS011;63320;50.768;6.724;2023-04-24T00:21:08;2.08;;;0.90;;
74793;SDS011;63320;50.768;6.724;2023-04-24T00:23:33;2.13;;;0.82;;
74793;SDS011;63320;50.768;6.724;2023-04-24T00:25:59;1.98;;;1.00;;
74793;SDS011;63320;50.768;6.724;2023-04-24T00:28:24;2.05;;;0.95;;
74793;SDS011;63320;50.768;6.724;2023-04-24T00:30:49;3.78;;;1.10;;
74793;SDS011;63320;50.768;6.724;2023-04-24T00:33:16;1.63;;;0.88;;
74793;SDS011;63320;50.768;6.724;2023-04-24T00:35:42;2.80;;;1.08;;
74793;SDS011;63320;50.768;6.724;2023-04-24T00:38:07;3.03;;;1.10;;
74793;SDS011;63320;50.768;6.724;2023-04-24T00:40:32;2.70;;;0.80;;
74793;SDS011;63320;50.768;6.724;2023-04-24T00:42:58;2.75;;;0.80;;
74793;SDS011;63320;50.768;6.724;2023-04-24T00:45:23;2.28;;;0.90;;
74793;SDS011;63320;50.768;6.724;2023-04-24T00:47:49;3.15;;;1.00;;
74793;SDS011;63320;50.768;6.724;2023-04-24T00:50:18;3.08;;;1.00;;
74793;SDS011;63320;50.768;6.724;2023-04-24T00:52:43;3.22;;;1.05;;
74793;SDS011;63320;50.768;6.724;2023-04-24T00:55:09;1.63;;;0.80;;
74793;SDS011;63320;50.768;6.724;2023-04-24T00:57:34;2.30;;;1.00;;
74793;SDS011;63320;50.768;6.724;2023-04-24T00:59:59;3.17;;;1.20;;
74793;SDS011;63320;50.768;6.724;2023-04-24T01:02:25;3.22;;;1.10;;
74793;SDS011;63320;50.768;6.724;2023-04-24T01:04:50;6.65;;;1.30;;
74793;SDS011;63320;50.768;6.724;2023-04-24T01:07:18;3.03;;;1.00;;
74793;SDS011;63320;50.768;6.724;2023-04-24T01:09:44;5.53;;;1.23;;
74793;SDS011;63320;50.768;6.724;2023-04-24T01:12:12;4.57;;;1.15;;
74793;SDS011;63320;50.768;6.724;2023-04-24T01:14:37;3.53;;;1.20;;
74793;SDS011;63320;50.768;6.724;2023-04-24T01:17:03;2.88;;;1.17;;
74793;SDS011;63320;50.768;6.724;2023-04-24T01:19:28;4.13;;;1.30;;
74793;SDS011;63320;50.768;6.724;2023-04-24T01:21:54;6.60;;;2.10;;
74793;SDS011;63320;50.768;6.724;2023-04-24T01:24:25;5.15;;;2.50;;
74793;SDS011;63320;50.768;6.724;2023-04-24T01:26:50;4.15;;;2.15;;
74793;SDS011;63320;50.768;6.724;2023-04-24T01:29:15;6.32;;;2.53;;
74793;SDS011;63320;50.768;6.724;2023-04-24T01:31:41;5.35;;;2.63;;
74793;SDS011;63320;50.768;6.724;2023-04-24T01:34:06;4.75;;;2.33;;
74793;SDS011;63320;50.768;6.724;2023-04-24T01:36:32;3.92;;;2.03;;
74793;SDS011;63320;50.768;6.724;2023-04-24T01:38:59;4.60;;;1.92;;
74793;SDS011;63320;50.768;6.724;2023-04-24T01:41:25;4.20;;;1.73;;
74793;SDS011;63320;50.768;6.724;2023-04-24T01:43:51;4.88;;;1.70;;
74793;SDS011;63320;50.768;6.724;2023-04-24T01:46:17;4.63;;;2.30;;
74793;SDS011;63320;50.768;6.724;2023-04-24T01:48:43;5.32;;;1.92;;
74793;SDS011;63320;50.768;6.724;2023-04-24T01:51:09;4.93;;;2.30;;
74793;SDS011;63320;50.768;6.724;2023-04-24T01:53:35;6.75;;;2.90;;
74793;SDS011;63320;50.768;6.724;2023-04-24T01:56:00;6.65;;;3.15;;
74793;SDS011;63320;50.768;6.724;2023-04-24T01:58:27;6.28;;;3.63;;
74793;SDS011;63320;50.768;6.724;2023-04-24T02:00:55;7.20;;;3.75;;
74793;SDS011;63320;50.768;6.724;2023-04-24T02:03:21;7.20;;;3.50;;
74793;SDS011;63320;50.768;6.724;2023-04-24T02:05:46;6.57;;;3.45;;
74793;SDS011;63320;50.768;6.724;2023-04-24T02:08:12;6.40;;;3.45;;
74793;SDS011;63320;50.768;6.724;2023-04-24T02:10:37;8.05;;;4.47;;
74793;SDS011;63320;50.768;6.724;2023-04-24T02:13:02;7.20;;;3.72;;
74793;SDS011;63320;50.768;6.724;2023-04-24T02:15:29;7.63;;;4.10;;
74793;SDS011;63320;50.768;6.724;2023-04-24T02:17:54;8.73;;;4.22;;
74793;SDS011;63320;50.768;6.724;2023-04-24T02:20:20;10.50;;;4.78;;
74793;SDS011;63320;50.768;6.724;2023-04-24T02:22:45;9.25;;;4.53;;
74793;SDS011;63320;50.768;6.724;2023-04-24T02:25:10;8.00;;;4.32;;
74793;SDS011;63320;50.768;6.724;2023-04-24T02:27:36;8.70;;;4.30;;
74793;SDS011;63320;50.768;6.724;2023-04-24T02:30:01;8.93;;;4.40;;
74793;SDS011;63320;50.768;6.724;2023-04-24T02:32:28;8.00;;;4.28;;
74793;SDS011;63320;50.768;6.724;2023-04-24T02:34:53;8.60;;;4.65;;
74793;SDS011;63320;50.768;6.724;2023-04-24T02:37:18;8.50;;;4.72;;
74793;SDS011;63320;50.768;6.724;2023-04-24T02:39:44;9.20;;;4.80;;
74793;SDS011;63320;50.768;6.724;2023-04-24T02:42:09;7.70;;;4.85;;
74793;SDS011;63320;50.768;6.724;2023-04-24T02:44:34;10.18;;;4.82;;
74793;SDS011;63320;50.768;6.724;2023-04-24T02:47:00;8.18;;;4.30;;
74793;SDS011;63320;50.768;6.724;2023-04-24T02:49:26;10.55;;;4.90;;
74793;SDS011;63320;50.768;6.724;2023-04-24T02:51:52;8.00;;;4.85;;
74793;SDS011;63320;50.768;6.724;2023-04-24T02:54:17;8.95;;;5.35;;
74793;SDS011;63320;50.768;6.724;2023-04-24T02:56:42;11.68;;;4.88;;
74793;SDS011;63320;50.768;6.724;2023-04-24T02:59:08;9.45;;;4.88;;
74793;SDS011;63320;50.768;6.724;2023-04-24T03:01:33;9.02;;;4.70;;
74793;SDS011;63320;50.768;6.724;2023-04-24T03:03:58;8.90;;;5.00;;
74793;SDS011;63320;50.768;6.724;2023-04-24T03:06:25;8.57;;;4.85;;
74793;SDS011;63320;50.768;6.724;2023-04-24T03:08:50;9.32;;;5.30;;
74793;SDS011;63320;50.768;6.724;2023-04-24T03:11:16;7.95;;;4.80;;
74793;SDS011;63320;50.768;6.724;2023-04-24T03:13:41;10.20;;;5.25;;
74793;SDS011;63320;50.768;6.724;2023-04-24T03:16:06;9.07;;;5.00;;
74793;SDS011;63320;50.768;6.724;2023-04-24T03:18:32;9.10;;;4.78;;
74793;SDS011;63320;50.768;6.724;2023-04-24T03:20:57;10.25;;;5.07;;
74793;SDS011;63320;50.768;6.724;2023-04-24T03:23:24;7.93;;;4.93;;
74793;SDS011;63320;50.768;6.724;2023-04-24T03:25:49;9.32;;;4.55;;
74793;SDS011;63320;50.768;6.724;2023-04-24T03:28:14;8.93;;;4.50;;
74793;SDS011;63320;50.768;6.724;2023-04-24T03:30:40;9.00;;;5.13;;
74793;SDS011;63320;50.768;6.724;2023-04-24T03:33:05;8.82;;;4.82;;
74793;SDS011;63320;50.768;6.724;2023-04-24T03:35:31;8.45;;;4.68;;
74793;SDS011;63320;50.768;6.724;2023-04-24T03:37:56;8.18;;;4.40;;
74793;SDS011;63320;50.768;6.724;2023-04-24T03:40:23;7.53;;;4.38;;
74793;SDS011;63320;50.768;6.724;2023-04-24T03:42:48;8.02;;;4.60;;
74793;SDS011;63320;50.768;6.724;2023-04-24T03:45:13;9.98;;;5.35;;
74793;SDS011;63320;50.768;6.724;2023-04-24T03:47:39;9.60;;;5.00;;
74793;SDS011;63320;50.768;6.724;2023-04-24T03:50:04;11.15;;;4.50;;
74793;SDS011;63320;50.768;6.724;2023-04-24T03:52:30;9.10;;;4.90;;
74793;SDS011;63320;50.768;6.724;2023-04-24T03:54:55;8.20;;;4.47;;
74793;SDS011;63320;50.768;6.724;2023-04-24T03:57:22;11.07;;;5.03;;
74793;SDS011;63320;50.768;6.724;2023-04-24T03:59:47;8.43;;;4.88;;
74793;SDS011;63320;50.768;6.724;2023-04-24T04:02:13;8.65;;;5.00;;
74793;SDS011;63320;50.768;6.724;2023-04-24T04:04:38;8.65;;;4.43;;
74793;SDS011;63320;50.768;6.724;2023-04-24T04:07:03;8.35;;;4.30;;
74793;SDS011;63320;50.768;6.724;2023-04-24T04:09:29;11.10;;;4.68;;
74793;SDS011;63320;50.768;6.724;2023-04-24T04:11:54;8.02;;;4.45;;
74793;SDS011;63320;50.768;6.724;2023-04-24T04:14:21;10.48;;;4.90;;
74793;SDS011;63320;50.768;6.724;2023-04-24T04:16:46;8.18;;;4.38;;
74793;SDS011;63320;50.768;6.724;2023-04-24T04:19:11;15.27;;;5.10;;
74793;SDS011;63320;50.768;6.724;2023-04-24T04:21:37;9.77;;;4.75;;
74793;SDS011;63320;50.768;6.724;2023-04-24T04:24:02;11.18;;;4.65;;
74793;SDS011;63320;50.768;6.724;2023-04-24T04:26:28;9.35;;;4.70;;
74793;SDS011;63320;50.768;6.724;2023-04-24T04:28:53;9.10;;;4.93;;
74793;SDS011;63320;50.768;6.724;2023-04-24T04:31:20;8.25;;;4.40;;
74793;SDS011;63320;50.768;6.724;2023-04-24T04:33:45;9.27;;;4.18;;
74793;SDS011;63320;50.768;6.724;2023-04-24T04:36:10;8.07;;;4.25;;
74793;SDS011;63320;50.768;6.724;2023-04-24T04:38:36;9.27;;;4.13;;
74793;SDS011;63320;50.768;6.724;2023-04-24T04:41:01;7.53;;;4.32;;
74793;SDS011;63320;50.768;6.724;2023-04-24T04:43:26;10.40;;;4.32;;
74793;SDS011;63320;50.768;6.724;2023-04-24T04:45:52;9.02;;;4.78;;
74793;SDS011;63320;50.768;6.724;2023-04-24T04:48:18;8.95;;;4.07;;
74793;SDS011;63320;50.768;6.724;2023-04-24T04:50:44;8.02;;;3.85;;
74793;SDS011;63320;50.768;6.724;2023-04-24T04:53:09;8.05;;;4.13;;
74793;SDS011;63320;50.768;6.724;2023-04-24T04:55:34;8.65;;;3.90;;
74793;SDS011;63320;50.768;6.724;2023-04-24T04:58:00;10.52;;;4.53;;
74793;SDS011;63320;50.768;6.724;2023-04-24T05:00:26;8.57;;;4.70;;
74793;SDS011;63320;50.768;6.724;2023-04-24T05:02:51;8.90;;;4.28;;
74793;SDS011;63320;50.768;6.724;2023-04-24T05:05:18;8.50;;;4.20;;
74793;SDS011;63320;50.768;6.724;2023-04-24T05:07:43;6.95;;;3.95;;
74793;SDS011;63320;50.768;6.724;2023-04-24T05:10:09;7.63;;;4.25;;
74793;SDS011;63320;50.768;6.724;2023-04-24T05:12:34;7.28;;;4.13;;
74793;SDS011;63320;50.768;6.724;2023-04-24T05:15:00;8.25;;;4.30;;
74793;SDS011;63320;50.768;6.724;2023-04-24T05:17:25;8.55;;;4.85;;
74793;SDS011;63320;50.768;6.724;2023-04-24T05:19:50;7.93;;;4.75;;
74793;SDS011;63320;50.768;6.724;2023-04-24T05:22:17;12.07;;;5.07;;
74793;SDS011;63320;50.768;6.724;2023-04-24T05:24:42;8.60;;;4.43;;
74793;SDS011;63320;50.768;6.724;2023-04-24T05:27:08;9.30;;;4.53;;
74793;SDS011;63320;50.768;6.724;2023-04-24T05:29:33;10.43;;;5.07;;
74793;SDS011;63320;50.768;6.724;2023-04-24T05:31:58;8.93;;;4.50;;
74793;SDS011;63320;50.768;6.724;2023-04-24T05:34:24;9.80;;;4.45;;
74793;SDS011;63320;50.768;6.724;2023-04-24T05:36:50;8.88;;;4.68;;
74793;SDS011;63320;50.768;6.724;2023-04-24T05:39:16;7.75;;;4.25;;
74793;SDS011;63320;50.768;6.724;2023-04-24T05:41:42;7.35;;;3.95;;
74793;SDS011;63320;50.768;6.724;2023-04-24T05:44:08;8.68;;;3.90;;
74793;SDS011;63320;50.768;6.724;2023-04-24T05:46:33;7.57;;;4.00;;
74793;SDS011;63320;50.768;6.724;2023-04-24T05:48:59;8.43;;;3.53;;
74793;SDS011;63320;50.768;6.724;2023-04-24T05:51:24;7.50;;;3.67;;
74793;SDS011;63320;50.768;6.724;2023-04-24T05:53:49;8.90;;;3.42;;
74793;SDS011;63320;50.768;6.724;2023-04-24T05:56:16;8.40;;;3.63;;
74793;SDS011;63320;50.768;6.724;2023-04-24T05:58:42;6.03;;;3.47;;
74793;SDS011;63320;50.768;6.724;2023-04-24T06:01:07;7.35;;;3.70;;
74793;SDS011;63320;50.768;6.724;2023-04-24T06:03:33;5.10;;;2.50;;
74793;SDS011;63320;50.768;6.724;2023-04-24T06:05:58;5.72;;;2.45;;
74793;SDS011;63320;50.768;6.724;2023-04-24T06:08:23;5.00;;;2.45;;
74793;SDS011;63320;50.768;6.724;2023-04-24T06:10:49;5.20;;;2.53;;
74793;SDS011;63320;50.768;6.724;2023-04-24T06:13:16;4.60;;;2.08;;
74793;SDS011;63320;50.768;6.724;2023-04-24T06:15:41;5.18;;;2.53;;
74793;SDS011;63320;50.768;6.724;2023-04-24T06:18:07;5.80;;;2.28;;
74793;SDS011;63320;50.768;6.724;2023-04-24T06:20:33;5.20;;;2.00;;
74793;SDS011;63320;50.768;6.724;2023-04-24T06:22:58;4.95;;;1.77;;
74793;SDS011;63320;50.768;6.724;2023-04-24T06:25:24;3.72;;;1.83;;
74793;SDS011;63320;50.768;6.724;2023-04-24T06:27:50;3.53;;;1.75;;
74793;SDS011;63320;50.768;6.724;2023-04-24T06:30:17;5.72;;;1.70;;
74793;SDS011;63320;50.768;6.724;2023-04-24T06:32:42;3.65;;;1.50;;
74793;SDS011;63320;50.768;6.724;2023-04-24T06:35:08;5.57;;;1.60;;
74793;SDS011;63320;50.768;6.724;2023-04-24T06:37:33;3.50;;;1.55;;
74793;SDS011;63320;50.768;6.724;2023-04-24T06:39:59;3.25;;;1.55;;
74793;SDS011;63320;50.768;6.724;2023-04-24T06:42:24;2.58;;;1.15;;
74793;SDS011;63320;50.768;6.724;2023-04-24T06:44:49;3.17;;;1.30;;
74793;SDS011;63320;50.768;6.724;2023-04-24T06:47:16;3.75;;;1.33;;
74793;SDS011;63320;50.768;6.724;2023-04-24T06:49:42;4.22;;;1.20;;
74793;SDS011;63320;50.768;6.724;2023-04-24T06:52:07;3.78;;;1.42;;
74793;SDS011;63320;50.768;6.724;2023-04-24T06:54:33;3.08;;;1.30;;
74793;SDS011;63320;50.768;6.724;2023-04-24T06:56:59;2.78;;;1.40;;
74793;SDS011;63320;50.768;6.724;2023-04-24T06:59:24;3.35;;;1.33;;
74793;SDS011;63320;50.768;6.724;2023-04-24T07:01:50;2.92;;;1.08;;
74793;SDS011;63320;50.768;6.724;2023-04-24T07:04:17;3.03;;;1.27;;
74793;SDS011;63320;50.768;6.724;2023-04-24T07:06:42;3.10;;;0.95;;
74793;SDS011;63320;50.768;6.724;2023-04-24T07:09:07;2.85;;;1.00;;
74793;SDS011;63320;50.768;6.724;2023-04-24T07:11:33;1.77;;;0.80;;
74793;SDS011;63320;50.768;6.724;2023-04-24T07:13:58;2.45;;;0.77;;
74793;SDS011;63320;50.768;6.724;2023-04-24T07:16:23;3.08;;;0.98;;
74793;SDS011;63320;50.768;6.724;2023-04-24T07:18:49;3.00;;;0.90;;
74793;SDS011;63320;50.768;6.724;2023-04-24T07:21:15;2.75;;;0.90;;
74793;SDS011;63320;50.768;6.724;2023-04-24T07:23:41;1.92;;;0.90;;
74793;SDS011;63320;50.768;6.724;2023-04-24T07:26:06;2.70;;;1.10;;
74793;SDS011;63320;50.768;6.724;2023-04-24T07:28:32;2.47;;;1.00;;
74793;SDS011;63320;50.768;6.724;2023-04-24T07:30:57;2.38;;;1.05;;
74793;SDS011;63320;50.768;6.724;2023-04-24T07:33:23;2.67;;;1.10;;
74793;SDS011;63320;50.768;6.724;2023-04-24T07:35:48;3.65;;;1.20;;
74793;SDS011;63320;50.768;6.724;2023-04-24T07:38:15;3.03;;;0.93;;
74793;SDS011;63320;50.768;6.724;2023-04-24T07:40:40;3.22;;;1.10;;
74793;SDS011;63320;50.768;6.724;2023-04-24T07:43:05;2.65;;;1.10;;
74793;SDS011;63320;50.768;6.724;2023-04-24T07:45:31;2.80;;;0.90;;
74793;SDS011;63320;50.768;6.724;2023-04-24T07:47:56;5.18;;;1.60;;
74793;SDS011;63320;50.768;6.724;2023-04-24T07:50:22;5.45;;;1.30;;
74793;SDS011;63320;50.768;6.724;2023-04-24T07:52:47;3.55;;;1.48;;
74793;SDS011;63320;50.768;6.724;2023-04-24T07:55:14;4.30;;;1.17;;
74793;SDS011;63320;50.768;6.724;2023-04-24T07:57:39;2.95;;;0.98;;
74793;SDS011;63320;50.768;6.724;2023-04-24T08:00:05;4.13;;;1.40;;
74793;SDS011;63320;50.768;6.724;2023-04-24T08:02:31;3.75;;;1.70;;
74793;SDS011;63320;50.768;6.724;2023-04-24T08:04:56;2.83;;;1.30;;
74793;SDS011;63320;50.768;6.724;2023-04-24T08:07:22;3.78;;;1.70;;
74793;SDS011;63320;50.768;6.724;2023-04-24T08:09:48;4.78;;;1.60;;
74793;SDS011;63320;50.768;6.724;2023-04-24T08:12:15;5.07;;;1.50;;
74793;SDS011;63320;50.768;6.724;2023-04-24T08:14:40;3.55;;;1.35;;
74793;SDS011;63320;50.768;6.724;2023-04-24T08:17:06;3.70;;;1.55;;
74793;SDS011;63320;50.768;6.724;2023-04-24T08:19:31;4.22;;;1.83;;
74793;SDS011;63320;50.768;6.724;2023-04-24T08:21:56;8.02;;;2.13;;
74793;SDS011;63320;50.768;6.724;2023-04-24T08:24:22;3.60;;;1.80;;
74793;SDS011;63320;50.768;6.724;2023-04-24T08:26:47;6.10;;;2.67;;
74793;SDS011;63320;50.768;6.724;2023-04-24T08:29:14;7.82;;;2.70;;
74793;SDS011;63320;50.768;6.724;2023-04-24T08:31:39;5.63;;;2.00;;
74793;SDS011;63320;50.768;6.724;2023-04-24T08:34:04;8.38;;;3.10;;
74793;SDS011;63320;50.768;6.724;2023-04-24T08:36:30;7.88;;;3.13;;
74793;SDS011;63320;50.768;6.724;2023-04-24T08:38:56;6.75;;;3.20;;
74793;SDS011;63320;50.768;6.724;2023-04-24T08:41:22;4.93;;;2.60;;
74793;SDS011;63320;50.768;6.724;2023-04-24T08:43:47;6.88;;;2.75;;
74793;SDS011;63320;50.768;6.724;2023-04-24T08:46:14;5.50;;;3.00;;
74793;SDS011;63320;50.768;6.724;2023-04-24T08:48:40;7.80;;;3.95;;
74793;SDS011;63320;50.768;6.724;2023-04-24T08:51:05;6.63;;;3.78;;
74793;SDS011;63320;50.768;6.724;2023-04-24T08:53:32;9.18;;;4.30;;
74793;SDS011;63320;50.768;6.724;2023-04-24T08:55:58;8.98;;;4.80;;
74793;SDS011;63320;50.768;6.724;2023-04-24T08:58:24;8.25;;;4.22;;
74793;SDS011;63320;50.768;6.724;2023-04-24T09:00:50;9.38;;;4.28;;
74793;SDS011;63320;50.768;6.724;2023-04-24T09:03:17;8.05;;;4.53;;
74793;SDS011;63320;50.768;6.724;2023-04-24T09:05:44;10.43;;;5.38;;
74793;SDS011;63320;50.768;6.724;2023-04-24T09:08:12;10.38;;;5.47;;
74793;SDS011;63320;50.768;6.724;2023-04-24T09:10:40;11.15;;;5.28;;
74793;SDS011;63320;50.768;6.724;2023-04-24T09:13:06;10.55;;;5.18;;
74793;SDS011;63320;50.768;6.724;2023-04-24T09:15:31;9.50;;;4.88;;
74793;SDS011;63320;50.768;6.724;2023-04-24T09:17:56;9.43;;;4.70;;
74793;SDS011;63320;50.768;6.724;2023-04-24T09:20:23;9.07;;;3.90;;
74793;SDS011;63320;50.768;6.724;2023-04-24T09:22:49;8.63;;;4.13;;
74793;SDS011;63320;50.768;6.724;2023-04-24T09:25:18;7.60;;;3.47;;
74793;SDS011;63320;50.768;6.724;2023-04-24T09:27:44;7.30;;;3.75;;
74793;SDS011;63320;50.768;6.724;2023-04-24T09:30:10;7.13;;;3.97;;
74793;SDS011;63320;50.768;6.724;2023-04-24T09:32:36;11.52;;;4.60;;
74793;SDS011;63320;50.768;6.724;2023-04-24T09:35:05;9.38;;;3.78;;
74793;SDS011;63320;50.768;6.724;2023-04-24T09:37:36;7.45;;;3.58;;
74793;SDS011;63320;50.768;6.724;2023-04-24T09:40:08;9.32;;;4.38;;
74793;SDS011;63320;50.768;6.724;2023-04-24T09:42:34;10.98;;;4.47;;
74793;SDS011;63320;50.768;6.724;2023-04-24T09:44:59;6.95;;;4.05;;
74793;SDS011;63320;50.768;6.724;2023-04-24T09:47:25;11.00;;;4.45;;
74793;SDS011;63320;50.768;6.724;2023-04-24T09:49:50;9.68;;;4.80;;
74793;SDS011;63320;50.768;6.724;2023-04-24T09:52:22;7.90;;;4.60;;
74793;SDS011;63320;50.768;6.724;2023-04-24T09:54:53;8.85;;;3.88;;
74793;SDS011;63320;50.768;6.724;2023-04-24T09:57:19;9.80;;;4.20;;
74793;SDS011;63320;50.768;6.724;2023-04-24T09:59:45;9.65;;;4.65;;
74793;SDS011;63320;50.768;6.724;2023-04-24T10:02:16;9.52;;;3.97;;
74793;SDS011;63320;50.768;6.724;2023-04-24T10:04:53;8.35;;;4.03;;
74793;SDS011;63320;50.768;6.724;2023-04-24T10:07:19;9.18;;;4.75;;
74793;SDS011;63320;50.768;6.724;2023-04-24T10:09:44;8.13;;;3.90;;
74793;SDS011;63320;50.768;6.724;2023-04-24T10:12:11;11.30;;;4.35;;
74793;SDS011;63320;50.768;6.724;2023-04-24T10:14:38;12.60;;;4.20;;
74793;SDS011;63320;50.768;6.724;2023-04-24T10:17:04;7.28;;;3.33;;
74793;SDS011;63320;50.768;6.724;2023-04-24T10:19:30;9.68;;;4.32;;
74793;SDS011;63320;50.768;6.724;2023-04-24T10:21:57;12.05;;;3.47;;
74793;SDS011;63320;50.768;6.724;2023-04-24T10:24:23;9.07;;;3.78;;
74793;SDS011;63320;50.768;6.724;2023-04-24T10:26:48;7.95;;;3.75;;
74793;SDS011;63320;50.768;6.724;2023-04-24T10:29:16;8.10;;;4.57;;
74793;SDS011;63320;50.768;6.724;2023-04-24T10:31:43;12.80;;;4.82;;
74793;SDS011;63320;50.768;6.724;2023-04-24T10:34:09;12.43;;;5.97;;
74793;SDS011;63320;50.768;6.724;2023-04-24T10:36:35;10.38;;;5.10;;
74793;SDS011;63320;50.768;6.724;2023-04-24T10:39:05;12.23;;;5.80;;
74793;SDS011;63320;50.768;6.724;2023-04-24T10:41:36;12.90;;;6.25;;
74793;SDS011;63320;50.768;6.724;2023-04-24T10:44:05;12.30;;;5.72;;
74793;SDS011;63320;50.768;6.724;2023-04-24T10:46:32;11.48;;;6.05;;
74793;SDS011;63320;50.768;6.724;2023-04-24T10:48:57;16.77;;;6.13;;
74793;SDS011;63320;50.768;6.724;2023-04-24T10:51:23;11.00;;;6.30;;
74793;SDS011;63320;50.768;6.724;2023-04-24T10:53:50;12.98;;;6.05;;
74793;SDS011;63320;50.768;6.724;2023-04-24T10:56:16;9.88;;;5.38;;
74793;SDS011;63320;50.768;6.724;2023-04-24T10:58:42;12.80;;;5.32;;
74793;SDS011;63320;50.768;6.724;2023-04-24T11:01:08;9.43;;;4.30;;
74793;SDS011;63320;50.768;6.724;2023-04-24T11:03:54;8.35;;;3.75;;
74793;SDS011;63320;50.768;6.724;2023-04-24T11:06:20;10.95;;;3.88;;
74793;SDS011;63320;50.768;6.724;2023-04-24T11:08:57;13.25;;;4.63;;
74793;SDS011;63320;50.768;6.724;2023-04-24T11:11:28;8.93;;;4.32;;
74793;SDS011;63320;50.768;6.724;2023-04-24T11:14:06;9.20;;;3.67;;
74793;SDS011;63320;50.768;6.724;2023-04-24T11:16:33;8.32;;;3.72;;
74793;SDS011;63320;50.768;6.724;2023-04-24T11:19:03;10.73;;;3.72;;
74793;SDS011;63320;50.768;6.724;2023-04-24T11:21:39;12.57;;;4.28;;
74793;SDS011;63320;50.768;6.724;2023-04-24T11:24:21;9.68;;;3.30;;
74793;SDS011;63320;50.768;6.724;2023-04-24T11:26:48;8.80;;;3.40;;
74793;SDS011;63320;50.768;6.724;2023-04-24T11:29:15;10.32;;;3.65;;
74793;SDS011;63320;50.768;6.724;2023-04-24T11:31:44;10.27;;;4.22;;
74793;SDS011;63320;50.768;6.724;2023-04-24T11:34:12;12.02;;;4.35;;
74793;SDS011;63320;50.768;6.724;2023-04-24T11:36:38;12.23;;;4.35;;
74793;SDS011;63320;50.768;6.724;2023-04-24T11:39:04;11.35;;;4.40;;
74793;SDS011;63320;50.768;6.724;2023-04-24T11:41:30;8.80;;;4.65;;
74793;SDS011;63320;50.768;6.724;2023-04-24T11:43:55;10.05;;;4.75;;
74793;SDS011;63320;50.768;6.724;2023-04-24T11:46:21;11.30;;;5.00;;
74793;SDS011;63320;50.768;6.724;2023-04-24T11:48:46;13.30;;;5.70;;
74793;SDS011;63320;50.768;6.724;2023-04-24T11:51:13;11.43;;;4.63;;
74793;SDS011;63320;50.768;6.724;2023-04-24T11:53:38;14.38;;;5.50;;
74793;SDS011;63320;50.768;6.724;2023-04-24T11:56:04;14.82;;;6.13;;
74793;SDS011;63320;50.768;6.724;2023-04-24T11:58:34;12.10;;;5.80;;
74793;SDS011;63320;50.768;6.724;2023-04-24T12:00:59;11.23;;;5.10;;
74793;SDS011;63320;50.768;6.724;2023-04-24T12:03:25;12.82;;;5.18;;
74793;SDS011;63320;50.768;6.724;2023-04-24T12:05:50;12.80;;;5.95;;
74793;SDS011;63320;50.768;6.724;2023-04-24T12:08:27;14.20;;;5.72;;
74793;SDS011;63320;50.768;6.724;2023-04-24T12:10:53;13.45;;;6.20;;
74793;SDS011;63320;50.768;6.724;2023-04-24T12:13:18;13.85;;;6.10;;
74793;SDS011;63320;50.768;6.724;2023-04-24T12:15:44;12.38;;;5.55;;
74793;SDS011;63320;50.768;6.724;2023-04-24T12:18:11;12.43;;;5.50;;
74793;SDS011;63320;50.768;6.724;2023-04-24T12:20:37;10.77;;;5.03;;
74793;SDS011;63320;50.768;6.724;2023-04-24T12:23:02;10.15;;;4.72;;
74793;SDS011;63320;50.768;6.724;2023-04-24T12:25:29;10.20;;;4.28;;
74793;SDS011;63320;50.768;6.724;2023-04-24T12:28:08;9.75;;;3.80;;
74793;SDS011;63320;50.768;6.724;2023-04-24T12:30:38;10.07;;;5.05;;
74793;SDS011;63320;50.768;6.724;2023-04-24T12:33:05;10.82;;;4.07;;
74793;SDS011;63320;50.768;6.724;2023-04-24T12:35:31;11.57;;;4.40;;
74793;SDS011;63320;50.768;6.724;2023-04-24T12:38:04;9.82;;;4.13;;
74793;SDS011;63320;50.768;6.724;2023-04-24T12:40:32;12.35;;;4.63;;
74793;SDS011;63320;50.768;6.724;2023-04-24T12:42:57;9.48;;;4.55;;
74793;SDS011;63320;50.768;6.724;2023-04-24T12:45:22;8.93;;;4.20;;
74793;SDS011;63320;50.768;6.724;2023-04-24T12:47:48;8.77;;;3.83;;
74793;SDS011;63320;50.768;6.724;2023-04-24T12:50:14;9.38;;;3.85;;
74793;SDS011;63320;50.768;6.724;2023-04-24T12:52:40;9.73;;;4.25;;
74793;SDS011;63320;50.768;6.724;2023-04-24T12:55:07;13.35;;;4.47;;
74793;SDS011;63320;50.768;6.724;2023-04-24T12:57:34;9.82;;;4.10;;
74793;SDS011;63320;50.768;6.724;2023-04-24T13:00:00;10.48;;;3.95;;
74793;SDS011;63320;50.768;6.724;2023-04-24T13:02:27;13.13;;;4.05;;
74793;SDS011;63320;50.768;6.724;2023-04-24T13:04:53;10.82;;;4.72;;
74793;SDS011;63320;50.768;6.724;2023-04-24T13:07:19;9.75;;;4.13;;
74793;SDS011;63320;50.768;6.724;2023-04-24T13:09:44;12.38;;;5.13;;
74793;SDS011;63320;50.768;6.724;2023-04-24T13:12:11;11.23;;;4.88;;
74793;SDS011;63320;50.768;6.724;2023-04-24T13:14:38;11.35;;;4.45;;
74793;SDS011;63320;50.768;6.724;2023-04-24T13:17:03;11.38;;;4.70;;
74793;SDS011;63320;50.768;6.724;2023-04-24T13:19:29;10.23;;;4.50;;
74793;SDS011;63320;50.768;6.724;2023-04-24T13:21:55;10.32;;;4.40;;
74793;SDS011;63320;50.768;6.724;2023-04-24T13:24:21;9.05;;;4.50;;
74793;SDS011;63320;50.768;6.724;2023-04-24T13:26:46;14.32;;;4.68;;
74793;SDS011;63320;50.768;6.724;2023-04-24T13:29:12;10.45;;;4.65;;
74793;SDS011;63320;50.768;6.724;2023-04-24T13:31:39;10.57;;;4.80;;
74793;SDS011;63320;50.768;6.724;2023-04-24T13:34:04;12.10;;;4.45;;
74793;SDS011;63320;50.768;6.724;2023-04-24T13:36:29;10.25;;;4.68;;
74793;SDS011;63320;50.768;6.724;2023-04-24T13:38:55;13.30;;;4.68;;
74793;SDS011;63320;50.768;6.724;2023-04-24T13:41:20;11.55;;;4.90;;
74793;SDS011;63320;50.768;6.724;2023-04-24T13:43:45;10.75;;;4.78;;
74793;SDS011;63320;50.768;6.724;2023-04-24T13:46:11;11.77;;;4.63;;
74793;SDS011;63320;50.768;6.724;2023-04-24T13:48:37;12.25;;;4.65;;
74793;SDS011;63320;50.768;6.724;2023-04-24T13:51:03;11.65;;;5.35;;
74793;SDS011;63320;50.768;6.724;2023-04-24T13:53:28;12.15;;;4.45;;
74793;SDS011;63320;50.768;6.724;2023-04-24T13:55:54;13.05;;;5.00;;
74793;SDS011;63320;50.768;6.724;2023-04-24T13:58:19;10.85;;;4.55;;
74793;SDS011;63320;50.768;6.724;2023-04-24T14:00:44;11.70;;;4.57;;
74793;SDS011;63320;50.768;6.724;2023-04-24T14:03:10;11.60;;;4.50;;
74793;SDS011;63320;50.768;6.724;2023-04-24T14:05:36;9.75;;;3.90;;
74793;SDS011;63320;50.768;6.724;2023-04-24T14:08:03;10.68;;;4.60;;
74793;SDS011;63320;50.768;6.724;2023-04-24T14:10:28;8.45;;;3.75;;
74793;SDS011;63320;50.768;6.724;2023-04-24T14:12:53;9.73;;;4.30;;
74793;SDS011;63320;50.768;6.724;2023-04-24T14:15:19;9.60;;;4.13;;
74793;SDS011;63320;50.768;6.724;2023-04-24T14:17:44;9.80;;;4.38;;
74793;SDS011;63320;50.768;6.724;2023-04-24T14:20:10;8.43;;;4.07;;
74793;SDS011;63320;50.768;6.724;2023-04-24T14:22:38;8.70;;;4.05;;
74793;SDS011;63320;50.768;6.724;2023-04-24T14:25:03;7.85;;;3.55;;
74793;SDS011;63320;50.768;6.724;2023-04-24T14:27:29;9.38;;;4.65;;
74793;SDS011;63320;50.768;6.724;2023-04-24T14:29:55;8.98;;;3.72;;
74793;SDS011;63320;50.768;6.724;2023-04-24T14:32:20;8.80;;;3.60;;
74793;SDS011;63320;50.768;6.724;2023-04-24T14:34:45;9.40;;;3.90;;
74793;SDS011;63320;50.768;6.724;2023-04-24T14:37:11;9.07;;;3.58;;